CheckWX is a tool to help pilots better visualize weather data.  It is not intended as a substitute for an official pre-flight weather briefing.

00:49:44 UTC

KOAJ METAR
Albert J Ellis Airport
Jacksonville, North Carolina, USA
Current

54 mins ago

KOAJ 202356Z 20012KT 10SM CLR 16/09 A2984 RMK AO2 SLP108 T01610089 10206 20161 53020
Observed
Apr-20 @ 23:56 UTC
Wind
  • 200° at 12 KTS
Visibility
10 SM
Flight Rules
VFR
Cloud Levels
  • Clear skies
Temperature
16°C / 61°F
Dewpoint
C / 48°F
Humidity
63%
Altimeter
29.84" Hg
Pressure
1010.52 hPa
Previous

2 hours ago

KOAJ 202256Z 19015G22KT 10SM CLR 18/09 A2981 RMK AO2 PK WND 18028/2205 SLP098 T01780094
Observed
Apr-20 @ 22:56 UTC
Wind
  • 190° at 15 KTS
  • Gusting to 22 KTS
Visibility
10 SM
Flight Rules
VFR
Cloud Levels
  • Clear skies
Temperature
18°C / 64°F
Dewpoint
C / 48°F
Humidity
56%
Altimeter
29.81" Hg
Pressure
1009.52 hPa
Previous

3 hours ago

KOAJ 202156Z 20021G26KT 10SM BKN060 19/09 A2979 RMK AO2 PK WND 18027/2132 SLP092 T01940094
Observed
Apr-20 @ 21:56 UTC
Wind
  • 200° at 21 KTS
  • Gusting to 26 KTS
Visibility
10 SM
Flight Rules
VFR
Cloud Levels
  • Broken at 6,000' AGL
Temperature
19°C / 66°F
Dewpoint
C / 48°F
Humidity
52%
Altimeter
29.79" Hg
Pressure
1008.82 hPa